Portada
METAR-TAF:

METAR-TAF

Aeropuertos :

Oslo, Noruega

Aeropuerto de Oslo-Gardermoen

latitud: 60-12N, longitud: 011-05E, altitud: 208 m

Observación

El informe se hizo hace 28 minutos, a las 22:50 UTC
Viento 3 kt del noroeste
Temperatura 5°C
Humedad 52%
Presión 1015 hPa
Visibilidad 10 km o más
sin nubes por debajo de 1500 m y sin presencia de cumulonimbus.

METAR: ENGM 212250Z 31003KT CAVOK 05/M04 Q1015

Hora: 01:18 (23:18 UTC)

Pronóstico

Pronóstico válido del 21 a las 18 UTC al 22 a las 18 UTC
Viento 8 kt del oeste-noroeste
Visibilidad 10 km o más
sin nubes por debajo de 1500 m y sin presencia de cumulonimbus.
Evolucionando progresivamente
del 22 a las 08 UTC al 22 a las 10 UTC
Viento 10 kt del sur

TAF: ENGM 2118/2218 30008KT CAVOK BECMG 2208/2210 18010KT

Observaciones y pronósticos meteorológicos de más de 4000 aeropuertos (mensajes METAR y TAF).

Los puntos amarillos y rojos representan las estaciones disponibles.

Ponga el ratón en el punto deseado para ver el nombre de la estación.

Haga clic para ver las observaciones y los pronósticos meteorológicos.

Para cambiar el mapa : haga clic en los botones verdes con una cruz de color negro para hacer un zoom, en el botón verde con un guión para alejar o en las flechas verdes para mapas adyacentes.


METAR-TAF: